sensor_id;sensor_type;location;lat;lon;timestamp;P1;P2;P0
61879;PMS7003;47817;52.798;27.544;2023-02-12T00:01:45;0.2;0;0
61879;PMS7003;47817;52.798;27.544;2023-02-12T00:06:09;0;0;0
61879;PMS7003;47817;52.798;27.544;2023-02-12T00:11:45;0.2;0;0
61879;PMS7003;47817;52.798;27.544;2023-02-12T00:16:24;0.6;0;0
61879;PMS7003;47817;52.798;27.544;2023-02-12T00:21:45;0.6;0;0
61879;PMS7003;47817;52.798;27.544;2023-02-12T00:26:34;0;0;0
61879;PMS7003;47817;52.798;27.544;2023-02-12T00:31:55;0.8;0;0
61879;PMS7003;47817;52.798;27.544;2023-02-12T00:36:41;0.4;0;0
61879;PMS7003;47817;52.798;27.544;2023-02-12T00:41:31;2;0;0
61879;PMS7003;47817;52.798;27.544;2023-02-12T00:46:57;0;0;0
61879;PMS7003;47817;52.798;27.544;2023-02-12T00:51:25;0.6;0;0
61879;PMS7003;47817;52.798;27.544;2023-02-12T00:56:43;0.3;0;0
61879;PMS7003;47817;52.798;27.544;2023-02-12T01:01:31;0.2;0;0
61879;PMS7003;47817;52.798;27.544;2023-02-12T01:06:09;0;0;0
61879;PMS7003;47817;52.798;27.544;2023-02-12T01:11:10;0.2;0;0
61879;PMS7003;47817;52.798;27.544;2023-02-12T01:16:57;0.2;0;0
61879;PMS7003;47817;52.798;27.544;2023-02-12T01:21:09;0.2;0;0
61879;PMS7003;47817;52.798;27.544;2023-02-12T01:26:43;0.4;0;0
61879;PMS7003;47817;52.798;27.544;2023-02-12T01:31:41;0.2;0;0
61879;PMS7003;47817;52.798;27.544;2023-02-12T01:36:55;0.4;0;0
61879;PMS7003;47817;52.798;27.544;2023-02-12T01:41:24;0.6;0;0
61879;PMS7003;47817;52.798;27.544;2023-02-12T01:46:11;1;0.3;0.3
61879;PMS7003;47817;52.798;27.544;2023-02-12T01:51:58;0.2;0;0
61879;PMS7003;47817;52.798;27.544;2023-02-12T01:56:45;0;0;0
61879;PMS7003;47817;52.798;27.544;2023-02-12T02:01:43;0.2;0;0
61879;PMS7003;47817;52.798;27.544;2023-02-12T02:06:57;0.4;0;0
61879;PMS7003;47817;52.798;27.544;2023-02-12T02:11:55;0.2;0;0
61879;PMS7003;47817;52.798;27.544;2023-02-12T02:16:46;0;0;0
61879;PMS7003;47817;52.798;27.544;2023-02-12T02:22:01;0;0;0
61879;PMS7003;47817;52.798;27.544;2023-02-12T02:26:21;0.6;0;0
61879;PMS7003;47817;52.798;27.544;2023-02-12T02:31:35;0.2;0;0
61879;PMS7003;47817;52.798;27.544;2023-02-12T02:36:12;1;0;0
61879;PMS7003;47817;52.798;27.544;2023-02-12T02:41:10;0.6;0;0
61879;PMS7003;47817;52.798;27.544;2023-02-12T02:46:10;2.6;0;0
61879;PMS7003;47817;52.798;27.544;2023-02-12T02:51:10;0;0;0
61879;PMS7003;47817;52.798;27.544;2023-02-12T02:56:19;1.2;0;0
61879;PMS7003;47817;52.798;27.544;2023-02-12T03:01:54;0.4;0;0
61879;PMS7003;47817;52.798;27.544;2023-02-12T03:06:34;2.6;0.2;0.2
61879;PMS7003;47817;52.798;27.544;2023-02-12T03:11:35;0.6;0;0
61879;PMS7003;47817;52.798;27.544;2023-02-12T03:16:57;1.6;0;0
61879;PMS7003;47817;52.798;27.544;2023-02-12T03:21:36;1.2;0;0
61879;PMS7003;47817;52.798;27.544;2023-02-12T03:26:10;0.6;0.4;0
61879;PMS7003;47817;52.798;27.544;2023-02-12T03:31:36;0;0;0
61879;PMS7003;47817;52.798;27.544;2023-02-12T03:36:09;1.2;0;0
61879;PMS7003;47817;52.798;27.544;2023-02-12T03:41:36;0.6;0;0
61879;PMS7003;47817;52.798;27.544;2023-02-12T03:46:11;0.6;0;0
61879;PMS7003;47817;52.798;27.544;2023-02-12T03:51:36;1;0.3;0
61879;PMS7003;47817;52.798;27.544;2023-02-12T03:56:58;1.6;0.2;0.2
61879;PMS7003;47817;52.798;27.544;2023-02-12T04:01:35;1;0;0
61879;PMS7003;47817;52.798;27.544;2023-02-12T04:06:33;1.2;0;0
61879;PMS7003;47817;52.798;27.544;2023-02-12T04:12:00;0.2;0;0
61879;PMS7003;47817;52.798;27.544;2023-02-12T04:16:47;0.2;0;0
61879;PMS7003;47817;52.798;27.544;2023-02-12T04:21:29;0;0;0
61879;PMS7003;47817;52.798;27.544;2023-02-12T04:26:24;0.8;0;0
61879;PMS7003;47817;52.798;27.544;2023-02-12T04:31:22;0;0;0
61879;PMS7003;47817;52.798;27.544;2023-02-12T04:36:33;0.6;0;0
61879;PMS7003;47817;52.798;27.544;2023-02-12T04:41:56;0.4;0;0
61879;PMS7003;47817;52.798;27.544;2023-02-12T04:46:09;1.2;0.2;0.2
61879;PMS7003;47817;52.798;27.544;2023-02-12T04:51:53;0.4;0;0
61879;PMS7003;47817;52.798;27.544;2023-02-12T04:56:19;1;0.3;0.3
61879;PMS7003;47817;52.798;27.544;2023-02-12T05:01:43;0.4;0;0
61879;PMS7003;47817;52.798;27.544;2023-02-12T05:06:19;0.2;0;0
61879;PMS7003;47817;52.798;27.544;2023-02-12T05:11:45;1;0.4;0.2
61879;PMS7003;47817;52.798;27.544;2023-02-12T05:16:09;0;0;0
61879;PMS7003;47817;52.798;27.544;2023-02-12T05:21:55;1;0.4;0.2
61879;PMS7003;47817;52.798;27.544;2023-02-12T05:26:19;1.4;0;0
61879;PMS7003;47817;52.798;27.544;2023-02-12T05:31:55;2.4;0.6;0.2
61879;PMS7003;47817;52.798;27.544;2023-02-12T05:36:55;0.6;0.2;0.2
61879;PMS7003;47817;52.798;27.544;2023-02-12T05:41:45;2;1.2;0.6
61879;PMS7003;47817;52.798;27.544;2023-02-12T05:46:45;0.4;0.4;0.2
61879;PMS7003;47817;52.798;27.544;2023-02-12T05:51:24;2.5;1;0.5
61879;PMS7003;47817;52.798;27.544;2023-02-12T05:56:45;1.4;0.4;0.2
61879;PMS7003;47817;52.798;27.544;2023-02-12T06:01:22;1.2;0.6;0.6
61879;PMS7003;47817;52.798;27.544;2023-02-12T06:06:23;2.2;1;0.8
61879;PMS7003;47817;52.798;27.544;2023-02-12T06:11:23;1.8;1;0.4
61879;PMS7003;47817;52.798;27.544;2023-02-12T06:16:45;2.8;1.4;0.6
61879;PMS7003;47817;52.798;27.544;2023-02-12T06:21:09;3.3;1;1
61879;PMS7003;47817;52.798;27.544;2023-02-12T06:26:55;1;0.6;0.4
61879;PMS7003;47817;52.798;27.544;2023-02-12T06:31:41;5.4;0.6;0.6
61879;PMS7003;47817;52.798;27.544;2023-02-12T06:36:43;3.6;2;1.2
61879;PMS7003;47817;52.798;27.544;2023-02-12T06:41:55;2;1.2;0.8
61879;PMS7003;47817;52.798;27.544;2023-02-12T06:46:33;4;1.6;0.8
61879;PMS7003;47817;52.798;27.544;2023-02-12T06:51:43;1.8;1;0.6
61879;PMS7003;47817;52.798;27.544;2023-02-12T06:56:09;1;0.8;0.8
61879;PMS7003;47817;52.798;27.544;2023-02-12T07:01:45;2.8;0.5;0.3
61879;PMS7003;47817;52.798;27.544;2023-02-12T07:06:09;1.4;0.6;0.4
61879;PMS7003;47817;52.798;27.544;2023-02-12T07:11:57;1.8;1;0.6
61879;PMS7003;47817;52.798;27.544;2023-02-12T07:16:10;2;1.4;1.2
61879;PMS7003;47817;52.798;27.544;2023-02-12T07:21:43;4;1.6;1.6
61879;PMS7003;47817;52.798;27.544;2023-02-12T07:26:23;1.4;0.8;0.6
61879;PMS7003;47817;52.798;27.544;2023-02-12T07:31:41;2.6;1.2;0.8
61879;PMS7003;47817;52.798;27.544;2023-02-12T07:36:55;4;1.4;1.4
61879;PMS7003;47817;52.798;27.544;2023-02-12T07:41:24;2.4;1;0.8
61879;PMS7003;47817;52.798;27.544;2023-02-12T07:46:43;1.6;1.2;0.8
61879;PMS7003;47817;52.798;27.544;2023-02-12T07:51:10;1.4;1;0.8
61879;PMS7003;47817;52.798;27.544;2023-02-12T07:56:33;5;2.8;2
61879;PMS7003;47817;52.798;27.544;2023-02-12T08:01:10;3.8;1.6;1.4
61879;PMS7003;47817;52.798;27.544;2023-02-12T08:06:57;2.2;0.8;0.4
61879;PMS7003;47817;52.798;27.544;2023-02-12T08:11:23;2;1;0.8
61879;PMS7003;47817;52.798;27.544;2023-02-12T08:16:41;1.3;0.5;0.5
61879;PMS7003;47817;52.798;27.544;2023-02-12T08:21:45;1.2;0.8;0.4
61879;PMS7003;47817;52.798;27.544;2023-02-12T08:26:57;3.6;1;0.8
61879;PMS7003;47817;52.798;27.544;2023-02-12T08:31:36;3.4;1.2;0.8
61879;PMS7003;47817;52.798;27.544;2023-02-12T08:36:10;3.8;1.6;0.8
61879;PMS7003;47817;52.798;27.544;2023-02-12T08:41:57;2.4;1.2;1
61879;PMS7003;47817;52.798;27.544;2023-02-12T08:46:34;1.8;1.4;0.6
61879;PMS7003;47817;52.798;27.544;2023-02-12T08:51:44;3;1.2;1.2
61879;PMS7003;47817;52.798;27.544;2023-02-12T08:56:58;1.2;1;0.8
61879;PMS7003;47817;52.798;27.544;2023-02-12T09:01:55;1;0.8;0.8
61879;PMS7003;47817;52.798;27.544;2023-02-12T09:06:25;1.5;1.3;0.5
61879;PMS7003;47817;52.798;27.544;2023-02-12T09:11:57;1.4;0.8;0.6
61879;PMS7003;47817;52.798;27.544;2023-02-12T09:16:09;1.8;0.6;0.4
61879;PMS7003;47817;52.798;27.544;2023-02-12T09:21:09;2.2;1;0.6
61879;PMS7003;47817;52.798;27.544;2023-02-12T09:26:10;1.4;0.4;0
61879;PMS7003;47817;52.798;27.544;2023-02-12T09:31:09;0.4;0;0
61879;PMS7003;47817;52.798;27.544;2023-02-12T09:36:35;3;0.8;0.8
61879;PMS7003;47817;52.798;27.544;2023-02-12T09:41:29;1.6;0.4;0.2
61879;PMS7003;47817;52.798;27.544;2023-02-12T09:46:10;1;0.8;0.5
61879;PMS7003;47817;52.798;27.544;2023-02-12T09:51:57;0.8;0.4;0.4
61879;PMS7003;47817;52.798;27.544;2023-02-12T09:56:21;2.6;1;0.8
61879;PMS7003;47817;52.798;27.544;2023-02-12T10:01:10;1.6;0.6;0.4
61879;PMS7003;47817;52.798;27.544;2023-02-12T10:07:00;1.6;1;0.8
61879;PMS7003;47817;52.798;27.544;2023-02-12T10:11:47;0.6;0.6;0.6
61879;PMS7003;47817;52.798;27.544;2023-02-12T10:16:11;0.6;0.6;0.4
61879;PMS7003;47817;52.798;27.544;2023-02-12T10:21:39;1.3;1;0.8
61879;PMS7003;47817;52.798;27.544;2023-02-12T10:26:36;0.8;0.8;0.8
61879;PMS7003;47817;52.798;27.544;2023-02-12T10:31:23;3;1.6;1
61879;PMS7003;47817;52.798;27.544;2023-02-12T10:37:01;2.4;1.2;1.2
61879;PMS7003;47817;52.798;27.544;2023-02-12T10:41:38;1.6;1.2;0.8
61879;PMS7003;47817;52.798;27.544;2023-02-12T10:46:57;1.4;0.4;0.4
61879;PMS7003;47817;52.798;27.544;2023-02-12T10:51:15;1;0.8;0.8
61879;PMS7003;47817;52.798;27.544;2023-02-12T10:56:57;1.6;1;0.6
61879;PMS7003;47817;52.798;27.544;2023-02-12T11:01:24;0.8;0.6;0.6
61879;PMS7003;47817;52.798;27.544;2023-02-12T11:06:44;1.2;0.6;0.2
61879;PMS7003;47817;52.798;27.544;2023-02-12T11:11:10;0.5;0.5;0.5
61879;PMS7003;47817;52.798;27.544;2023-02-12T11:16:59;1.4;1.4;1
61879;PMS7003;47817;52.798;27.544;2023-02-12T11:21:23;0.8;0.4;0.2
61879;PMS7003;47817;52.798;27.544;2023-02-12T11:27:19;2.4;0.6;0.4
61879;PMS7003;47817;52.798;27.544;2023-02-12T11:31:59;1.2;0.6;0.4
61879;PMS7003;47817;52.798;27.544;2023-02-12T11:36:48;1;0.6;0.6
61879;PMS7003;47817;52.798;27.544;2023-02-12T11:41:59;1.4;0.6;0.4
61879;PMS7003;47817;52.798;27.544;2023-02-12T11:46:35;1.2;0.6;0.6
61879;PMS7003;47817;52.798;27.544;2023-02-12T11:51:47;0.8;0.6;0.4
61879;PMS7003;47817;52.798;27.544;2023-02-12T11:56:23;1.3;1;0.5
61879;PMS7003;47817;52.798;27.544;2023-02-12T12:01:43;0.8;0.4;0.4
61879;PMS7003;47817;52.798;27.544;2023-02-12T12:06:25;1.4;0.8;0.4
61879;PMS7003;47817;52.798;27.544;2023-02-12T12:12:01;1;1;0.4
61879;PMS7003;47817;52.798;27.544;2023-02-12T12:16:24;1.5;0.8;0.5
61879;PMS7003;47817;52.798;27.544;2023-02-12T12:22:02;1;0.6;0.4
61879;PMS7003;47817;52.798;27.544;2023-02-12T12:26:58;0.6;0.6;0.2
61879;PMS7003;47817;52.798;27.544;2023-02-12T12:31:09;0.2;0.2;0.2
61879;PMS7003;47817;52.798;27.544;2023-02-12T12:36:45;0.4;0;0
61879;PMS7003;47817;52.798;27.544;2023-02-12T12:41:39;0;0;0
61879;PMS7003;47817;52.798;27.544;2023-02-12T12:46:48;0.6;0;0
61879;PMS7003;47817;52.798;27.544;2023-02-12T12:51:13;1;0.2;0
61879;PMS7003;47817;52.798;27.544;2023-02-12T12:56:47;1;0.2;0.2
61879;PMS7003;47817;52.798;27.544;2023-02-12T13:01:14;0.6;0;0
61879;PMS7003;47817;52.798;27.544;2023-02-12T13:06:37;0.6;0.2;0.2
61879;PMS7003;47817;52.798;27.544;2023-02-12T13:11:12;1;0;0
61879;PMS7003;47817;52.798;27.544;2023-02-12T13:16:48;1.8;0.5;0.5
61879;PMS7003;47817;52.798;27.544;2023-02-12T13:21:46;1.8;1;1
61879;PMS7003;47817;52.798;27.544;2023-02-12T13:26:48;1.6;1.2;0.8
61879;PMS7003;47817;52.798;27.544;2023-02-12T13:31:56;2.2;1.2;1
61879;PMS7003;47817;52.798;27.544;2023-02-12T13:36:23;1.6;1.2;1
61879;PMS7003;47817;52.798;27.544;2023-02-12T13:41:46;1.6;1.2;1
61879;PMS7003;47817;52.798;27.544;2023-02-12T13:46:37;1.8;1;0.8
61879;PMS7003;47817;52.798;27.544;2023-02-12T13:51:45;1.8;1.8;1.3
61879;PMS7003;47817;52.798;27.544;2023-02-12T13:56:10;1.8;1;1
61879;PMS7003;47817;52.798;27.544;2023-02-12T14:01:57;1.4;0.8;0.4
61879;PMS7003;47817;52.798;27.544;2023-02-12T14:06:35;3.4;1.6;1.2
61879;PMS7003;47817;52.798;27.544;2023-02-12T14:11:45;0.6;0.6;0.6
61879;PMS7003;47817;52.798;27.544;2023-02-12T14:16:36;0.5;0.5;0.3
61879;PMS7003;47817;52.798;27.544;2023-02-12T14:21:57;1;0;0
61879;PMS7003;47817;52.798;27.544;2023-02-12T14:26:19;0.6;0;0
61879;PMS7003;47817;52.798;27.544;2023-02-12T14:31:29;2;0.6;0.4
61879;PMS7003;47817;52.798;27.544;2023-02-12T14:37:09;1.4;1;1
61879;PMS7003;47817;52.798;27.544;2023-02-12T14:41:22;5;2.6;2
61879;PMS7003;47817;52.798;27.544;2023-02-12T14:46:48;5.8;3.8;2.6
61879;PMS7003;47817;52.798;27.544;2023-02-12T14:51:57;4.4;2.6;1.8
61879;PMS7003;47817;52.798;27.544;2023-02-12T14:56:59;3;1.6;1.4
61879;PMS7003;47817;52.798;27.544;2023-02-12T15:01:23;4.4;2.8;1.4
61879;PMS7003;47817;52.798;27.544;2023-02-12T15:07:00;3.8;2.8;2
61879;PMS7003;47817;52.798;27.544;2023-02-12T15:11:34;3.5;2.3;1.8
61879;PMS7003;47817;52.798;27.544;2023-02-12T15:16:21;2;1.2;1.2
61879;PMS7003;47817;52.798;27.544;2023-02-12T15:21:57;3.6;3;2.2
61879;PMS7003;47817;52.798;27.544;2023-02-12T15:26:23;7.4;5.6;4.2
61879;PMS7003;47817;52.798;27.544;2023-02-12T15:31:33;11;8.2;6.2
61879;PMS7003;47817;52.798;27.544;2023-02-12T15:36:23;12.8;9.6;7
61879;PMS7003;47817;52.798;27.544;2023-02-12T15:41:45;9.4;6.8;5.2
61879;PMS7003;47817;52.798;27.544;2023-02-12T15:46:58;6.8;5.8;4.5
61879;PMS7003;47817;52.798;27.544;2023-02-12T15:51:24;5.2;4.6;3.4
61879;PMS7003;47817;52.798;27.544;2023-02-12T15:56:35;6.4;5;4.2
61879;PMS7003;47817;52.798;27.544;2023-02-12T16:01:58;6;4.8;3.8
61879;PMS7003;47817;52.798;27.544;2023-02-12T16:06:10;7;5.2;3.6
61879;PMS7003;47817;52.798;27.544;2023-02-12T16:11:23;6.6;5;4.2
61879;PMS7003;47817;52.798;27.544;2023-02-12T16:16:38;10.6;8;6
61879;PMS7003;47817;52.798;27.544;2023-02-12T16:21:19;16.5;12.3;8.8
61879;PMS7003;47817;52.798;27.544;2023-02-12T16:26:35;9.8;7.6;5.8
61879;PMS7003;47817;52.798;27.544;2023-02-12T16:31:33;7.2;5.8;5
61879;PMS7003;47817;52.798;27.544;2023-02-12T16:36:10;9.8;8;6.6
61879;PMS7003;47817;52.798;27.544;2023-02-12T16:41:57;9.6;8.4;6.4
61879;PMS7003;47817;52.798;27.544;2023-02-12T16:46:43;9;7;5.6
61879;PMS7003;47817;52.798;27.544;2023-02-12T16:51:35;9.2;4.8;3.2
61879;PMS7003;47817;52.798;27.544;2023-02-12T16:56:59;7.2;4.4;2.8
61879;PMS7003;47817;52.798;27.544;2023-02-12T17:01:35;8;6.6;4.4
61879;PMS7003;47817;52.798;27.544;2023-02-12T17:06:24;18.6;15.2;8.8
61879;PMS7003;47817;52.798;27.544;2023-02-12T17:11:53;17.6;12.8;7.2
61879;PMS7003;47817;52.798;27.544;2023-02-12T17:16:09;15.3;7.3;5
61879;PMS7003;47817;52.798;27.544;2023-02-12T17:21:35;14.8;10.8;7.8
61879;PMS7003;47817;52.798;27.544;2023-02-12T17:26:57;6.4;5;3.4
61879;PMS7003;47817;52.798;27.544;2023-02-12T17:31:21;9.2;7.4;4.2
61879;PMS7003;47817;52.798;27.544;2023-02-12T17:36:57;5;3.8;3.6
61879;PMS7003;47817;52.798;27.544;2023-02-12T17:41:35;6.2;4.4;3.2
61879;PMS7003;47817;52.798;27.544;2023-02-12T17:46:57;4.8;2.4;2.2
61879;PMS7003;47817;52.798;27.544;2023-02-12T17:51:23;4;2.5;1.5
61879;PMS7003;47817;52.798;27.544;2023-02-12T17:56:59;3.4;2.8;1.8
61879;PMS7003;47817;52.798;27.544;2023-02-12T18:01:09;3.8;1.8;1.2
61879;PMS7003;47817;52.798;27.544;2023-02-12T18:06:59;4.6;3.2;2.6
61879;PMS7003;47817;52.798;27.544;2023-02-12T18:11:23;6.6;4.6;3.4
61879;PMS7003;47817;52.798;27.544;2023-02-12T18:16:57;3;2;1.6
61879;PMS7003;47817;52.798;27.544;2023-02-12T18:21:59;4.4;1.6;1.2
61879;PMS7003;47817;52.798;27.544;2023-02-12T18:26:48;2.5;1.8;1.8
61879;PMS7003;47817;52.798;27.544;2023-02-12T18:31:43;3;1.4;1
61879;PMS7003;47817;52.798;27.544;2023-02-12T18:36:37;2.8;1.2;1
61879;PMS7003;47817;52.798;27.544;2023-02-12T18:41:45;3.4;2.2;1
61879;PMS7003;47817;52.798;27.544;2023-02-12T18:46:25;2;1.2;1.2
61879;PMS7003;47817;52.798;27.544;2023-02-12T18:51:43;3;1.2;0.8
61879;PMS7003;47817;52.798;27.544;2023-02-12T18:56:10;0.2;0.2;0.2
61879;PMS7003;47817;52.798;27.544;2023-02-12T19:01:18;0.6;0.6;0.6
61879;PMS7003;47817;52.798;27.544;2023-02-12T19:06:36;2.4;0.8;0.8
61879;PMS7003;47817;52.798;27.544;2023-02-12T19:11:59;2.3;2.3;1.3
61879;PMS7003;47817;52.798;27.544;2023-02-12T19:16:47;1.8;0.8;0.8
61879;PMS7003;47817;52.798;27.544;2023-02-12T19:21:47;2.2;1.4;0.8
61879;PMS7003;47817;52.798;27.544;2023-02-12T19:26:55;2.8;1.6;0.8
61879;PMS7003;47817;52.798;27.544;2023-02-12T19:31:34;1.4;1;0.4
61879;PMS7003;47817;52.798;27.544;2023-02-12T19:36:47;1;0.6;0.4
61879;PMS7003;47817;52.798;27.544;2023-02-12T19:41:10;0.6;0.4;0.4
61879;PMS7003;47817;52.798;27.544;2023-02-12T19:46:45;0;0;0
61879;PMS7003;47817;52.798;27.544;2023-02-12T19:51:23;1.8;0.2;0
61879;PMS7003;47817;52.798;27.544;2023-02-12T19:56:43;0.4;0;0
61879;PMS7003;47817;52.798;27.544;2023-02-12T20:01:33;1.2;0.2;0.2
61879;PMS7003;47817;52.798;27.544;2023-02-12T20:06:59;1.4;0.6;0.4
61879;PMS7003;47817;52.798;27.544;2023-02-12T20:11:47;0.4;0;0
61879;PMS7003;47817;52.798;27.544;2023-02-12T20:16:47;1.8;0.4;0
61879;PMS7003;47817;52.798;27.544;2023-02-12T20:21:59;1.4;1.2;0.8
61879;PMS7003;47817;52.798;27.544;2023-02-12T20:26:23;1.2;0.2;0.2
61879;PMS7003;47817;52.798;27.544;2023-02-12T20:31:47;3.3;0.8;0.5
61879;PMS7003;47817;52.798;27.544;2023-02-12T20:36:09;2;1.2;0.4
61879;PMS7003;47817;52.798;27.544;2023-02-12T20:41:47;2;1;0.8
61879;PMS7003;47817;52.798;27.544;2023-02-12T20:46:22;8;5.6;3.8
61879;PMS7003;47817;52.798;27.544;2023-02-12T20:51:57;6.4;3.6;2.8
61879;PMS7003;47817;52.798;27.544;2023-02-12T20:56:35;1.8;0.8;0.4
61879;PMS7003;47817;52.798;27.544;2023-02-12T21:01:47;2.6;1.2;1
61879;PMS7003;47817;52.798;27.544;2023-02-12T21:06:29;2.4;1.6;1.2
61879;PMS7003;47817;52.798;27.544;2023-02-12T21:11:57;3.6;1.6;1.6
61879;PMS7003;47817;52.798;27.544;2023-02-12T21:16:20;3.3;1;0.8
61879;PMS7003;47817;52.798;27.544;2023-02-12T21:21:10;3.2;1.2;1
61879;PMS7003;47817;52.798;27.544;2023-02-12T21:26:57;4.8;2;1.8
61879;PMS7003;47817;52.798;27.544;2023-02-12T21:31:10;3.4;2.6;2
61879;PMS7003;47817;52.798;27.544;2023-02-12T21:36:57;3;1.4;1
61879;PMS7003;47817;52.798;27.544;2023-02-12T21:42:00;3.6;2;1.6
61879;PMS7003;47817;52.798;27.544;2023-02-12T21:46:57;4.8;2.4;2.2
61879;PMS7003;47817;52.798;27.544;2023-02-12T21:51:37;4.8;2.8;2.5
61879;PMS7003;47817;52.798;27.544;2023-02-12T21:56:47;5.2;3.4;2.2
61879;PMS7003;47817;52.798;27.544;2023-02-12T22:01:35;3.4;2.2;1.8
61879;PMS7003;47817;52.798;27.544;2023-02-12T22:06:23;2.8;1.6;1.2
61879;PMS7003;47817;52.798;27.544;2023-02-12T22:11:35;5.8;3;1.2
61879;PMS7003;47817;52.798;27.544;2023-02-12T22:16:10;5.2;2;1.6
61879;PMS7003;47817;52.798;27.544;2023-02-12T22:21:34;5.4;3.4;1.8
61879;PMS7003;47817;52.798;27.544;2023-02-12T22:26:20;4;2.4;1.4
61879;PMS7003;47817;52.798;27.544;2023-02-12T22:31:10;3.4;2.4;1.8
61879;PMS7003;47817;52.798;27.544;2023-02-12T22:36:55;4.3;2.8;2
61879;PMS7003;47817;52.798;27.544;2023-02-12T22:41:35;5.6;2.6;1.8
61879;PMS7003;47817;52.798;27.544;2023-02-12T22:46:23;2;1.8;1.4
61879;PMS7003;47817;52.798;27.544;2023-02-12T22:51:59;3.4;2;1
61879;PMS7003;47817;52.798;27.544;2023-02-12T22:56:23;2.8;1.6;1.4
61879;PMS7003;47817;52.798;27.544;2023-02-12T23:01:23;3.2;1.2;1.2
61879;PMS7003;47817;52.798;27.544;2023-02-12T23:06:24;4.2;2.4;2
61879;PMS7003;47817;52.798;27.544;2023-02-12T23:11:09;3.4;2.2;1.4
61879;PMS7003;47817;52.798;27.544;2023-02-12T23:16:33;5;2.4;2.2
61879;PMS7003;47817;52.798;27.544;2023-02-12T23:21:59;2.8;1.5;1.5
61879;PMS7003;47817;52.798;27.544;2023-02-12T23:26:35;2.4;1.6;1.2
61879;PMS7003;47817;52.798;27.544;2023-02-12T23:31:55;5;2.4;2.2
61879;PMS7003;47817;52.798;27.544;2023-02-12T23:36:37;5;2.2;1.4
61879;PMS7003;47817;52.798;27.544;2023-02-12T23:41:57;1;0.8;0.5
61879;PMS7003;47817;52.798;27.544;2023-02-12T23:46:09;2;0.8;0.6
61879;PMS7003;47817;52.798;27.544;2023-02-12T23:51:43;3.8;2;1.4
61879;PMS7003;47817;52.798;27.544;2023-02-12T23:56:23;4.2;2;1.4
